Date,TemperatureHighF,TemperatureAvgF,TemperatureLowF,DewpointHighF,DewpointAvgF,DewpointLowF,HumidityHigh,HumidityAvg,HumidityLow,PressureMaxIn,PressureMinIn,WindSpeedMaxMPH,WindSpeedAvgMPH,GustSpeedMaxMPH,PrecipitationSumIn
2013-1-1,30.0,24.1,18.0,0.0,0.0,0.0,0,0,100,0.00,0.00,13,5,21,0.00
2013-1-2,20.0,16.2,11.0,0.0,0.0,0.0,0,0,100,0.00,0.00,9,4,15,0.00
2013-1-3,27.0,19.8,10.5,0.0,0.0,0.0,0,0,100,0.00,0.00,17,10,29,0.00
2013-1-4,27.0,24.8,22.8,0.0,0.0,0.0,0,0,100,0.00,0.00,23,15,38,0.00
2013-1-5,32.8,27.4,22.0,0.0,0.0,0.0,0,0,100,0.00,0.00,16,8,24,0.00
2013-1-6,34.3,31.8,28.0,0.0,0.0,0.0,0,0,100,0.00,0.00,18,10,24,0.00
2013-1-7,33.0,29.1,27.0,0.0,0.0,0.0,0,0,100,0.00,0.00,20,9,32,0.00
2013-1-8,40.8,32.0,25.8,0.0,0.0,0.0,0,0,100,0.00,0.00,15,8,24,0.02
2013-1-9,43.4,38.2,33.0,0.0,0.0,0.0,0,0,100,0.00,0.00,21,12,32,0.00
2013-1-10,40.0,34.3,27.0,0.0,0.0,0.0,0,0,100,0.00,0.00,18,7,28,0.00
2013-1-11,54.0,46.5,38.0,0.0,0.0,0.0,0,0,100,0.00,0.00,22,12,31,0.44
2013-1-12,58.0,52.9,47.9,0.0,0.0,0.0,0,0,100,0.00,0.00,15,10,24,0.00
2013-1-13,61.9,51.4,35.0,0.0,0.0,0.0,0,0,100,0.00,0.00,24,10,36,0.26
2013-1-14,34.7,27.4,24.0,0.0,0.0,0.0,0,0,100,0.00,0.00,18,7,27,0.00
2013-1-15,30.0,26.1,24.0,0.0,0.0,0.0,0,0,100,0.00,0.00,9,3,14,0.00
2013-1-16,32.0,29.2,26.0,0.0,0.0,0.0,0,0,100,0.00,0.00,16,6,25,0.00
2013-1-17,34.0,30.7,24.0,0.0,0.0,0.0,0,0,100,0.00,0.00,22,9,31,0.00
2013-1-18,33.0,24.9,18.0,0.0,0.0,0.0,0,0,100,0.00,0.00,22,11,38,0.00
2013-1-19,48.0,40.9,32.2,0.0,0.0,0.0,0,0,100,0.00,0.00,24,15,43,0.00
2013-1-20,45.0,26.5,17.0,0.0,0.0,0.0,0,0,100,0.00,0.00,33,17,58,0.00
2013-1-21,20.0,15.3,7.0,0.0,0.0,0.0,0,0,100,0.00,0.00,24,11,31,0.00
2013-1-22,9.0,5.4,3.1,0.0,0.0,0.0,0,0,100,0.00,0.00,21,12,27,0.00
2013-1-23,14.6,8.9,3.0,0.0,0.0,0.0,0,0,100,0.00,0.00,15,6,22,0.00
2013-1-24,19.0,13.5,8.0,0.0,0.0,0.0,0,0,100,0.00,0.00,15,4,25,0.02
2013-1-25,17.0,14.3,11.0,0.0,0.0,0.0,0,0,100,0.00,0.00,15,4,23,0.00
2013-1-26,23.7,20.0,16.0,0.0,0.0,0.0,0,0,100,0.00,0.00,15,5,20,0.00
2013-1-27,30.0,22.1,12.0,0.0,0.0,0.0,0,0,100,0.00,0.00,14,6,24,0.00
2013-1-28,47.0,39.1,28.0,0.0,0.0,0.0,0,0,100,0.00,0.00,20,9,31,0.07
2013-1-29,58.0,51.1,40.0,0.0,0.0,0.0,0,0,100,0.00,0.00,25,10,39,0.09
2013-1-30,60.0,53.6,35.0,0.0,0.0,0.0,0,0,100,0.00,0.00,29,17,47,0.35
2013-1-31,34.0,23.4,15.0,0.0,0.0,0.0,0,0,100,0.00,0.00,35,19,48,0.00
2013-2-1,16.0,12.9,10.0,0.0,0.0,0.0,0,0,100,0.00,0.00,23,14,33,0.00
2013-2-2,21.4,16.1,11.0,0.0,0.0,0.0,0,0,100,0.00,0.00,15,7,20,0.00
2013-2-3,20.4,17.1,15.0,0.0,0.0,0.0,0,0,100,0.00,0.00,16,7,26,0.02
2013-2-4,25.0,19.2,15.0,0.0,0.0,0.0,0,0,100,0.00,0.00,12,4,16,0.00
2013-2-5,27.0,23.3,19.0,0.0,0.0,0.0,0,0,100,0.00,0.00,13,3,17,0.00
2013-2-6,27.0,23.3,19.0,0.0,0.0,0.0,0,0,100,0.00,0.00,15,4,22,0.00
2013-2-7,42.0,31.5,21.0,0.0,0.0,0.0,0,0,100,0.00,0.00,16,10,27,0.07
2013-2-8,38.0,29.6,23.1,0.0,0.0,0.0,0,0,100,0.00,0.00,25,16,40,0.13
2013-2-9,29.0,23.8,19.0,0.0,0.0,0.0,0,0,100,0.00,0.00,18,5,26,0.04
2013-2-10,46.0,35.0,22.3,0.0,0.0,0.0,0,0,100,0.00,0.00,21,11,35,0.00
2013-2-11,49.0,39.0,31.0,0.0,0.0,0.0,0,0,100,0.00,0.00,32,19,53,0.00
2013-2-12,34.0,29.5,24.0,0.0,0.0,0.0,0,0,100,0.00,0.00,22,10,29,0.00
2013-2-13,32.7,27.1,23.0,0.0,0.0,0.0,0,0,100,0.00,0.00,12,2,15,0.00
2013-2-14,36.1,31.3,24.0,0.0,0.0,0.0,0,0,100,0.00,0.00,29,11,41,0.00
2013-2-15,34.0,28.4,24.0,0.0,0.0,0.0,0,0,100,0.00,0.00,20,7,29,0.00
2013-2-16,26.0,21.3,17.0,0.0,0.0,0.0,0,0,100,0.00,0.00,15,4,26,0.00
2013-2-17,19.0,16.0,9.3,0.0,0.0,0.0,0,0,100,0.00,0.00,16,8,24,0.07
2013-2-18,43.6,26.6,9.0,0.0,0.0,0.0,0,0,100,0.00,0.00,24,12,33,0.04
2013-2-19,44.5,28.9,15.0,0.0,0.0,0.0,0,0,100,0.00,0.00,29,17,44,0.09
2013-2-20,19.7,16.8,13.7,0.0,0.0,0.0,0,0,100,0.00,0.00,20,13,32,0.00
2013-2-21,21.0,17.4,15.0,0.0,0.0,0.0,0,0,100,0.00,0.00,14,6,22,0.02
2013-2-22,36.0,27.9,17.0,0.0,0.0,0.0,0,0,100,0.00,0.00,23,11,35,0.02
2013-2-23,33.4,31.1,27.0,0.0,0.0,0.0,0,0,100,0.00,0.00,13,7,18,0.00
2013-2-24,31.0,27.7,24.0,0.0,0.0,0.0,0,0,100,0.00,0.00,14,7,20,0.00
2013-2-25,39.0,30.0,21.0,0.0,0.0,0.0,0,0,100,0.00,0.00,13,3,20,0.00
2013-2-26,36.3,32.5,27.0,0.0,0.0,0.0,0,0,100,0.00,0.00,30,16,45,0.62
2013-2-27,40.0,35.5,31.0,0.0,0.0,0.0,0,0,100,0.00,0.00,20,9,30,0.07
2013-2-28,32.0,30.3,28.0,0.0,0.0,0.0,0,0,100,0.00,0.00,17,10,27,0.02
2013-3-1,28.2,25.2,23.0,0.0,0.0,0.0,0,0,100,0.00,0.00,15,9,25,0.00
2013-3-2,26.0,23.4,21.0,0.0,0.0,0.0,0,0,100,0.00,0.00,14,6,20,0.02
2013-3-3,25.0,21.5,19.0,0.0,0.0,0.0,0,0,100,0.00,0.00,13,7,20,0.00
2013-3-4,31.0,22.1,13.7,0.0,0.0,0.0,0,0,100,0.00,0.00,12,2,14,0.04
2013-3-5,39.0,28.8,17.0,0.0,0.0,0.0,0,0,100,0.00,0.00,21,8,35,0.00
2013-3-6,42.0,34.6,29.0,0.0,0.0,0.0,0,0,100,0.00,0.00,20,7,32,0.00
2013-3-7,35.0,30.8,27.0,0.0,0.0,0.0,0,0,100,0.00,0.00,13,5,21,0.00
2013-3-8,34.0,27.9,23.7,0.0,0.0,0.0,0,0,100,0.00,0.00,8,2,14,0.00
2013-3-9,51.0,38.0,24.5,0.0,0.0,0.0,0,0,100,0.00,0.00,15,4,22,0.02
2013-3-10,65.0,55.7,46.3,0.0,0.0,0.0,0,0,100,0.00,40.00,20,12,27,0.00
2013-3-11,60.0,50.2,40.0,0.0,0.0,0.0,0,0,100,0.00,0.00,24,14,40,0.73
2013-3-12,39.4,33.8,30.0,0.0,0.0,0.0,0,0,100,0.00,0.00,17,11,28,0.02
2013-3-13,30.0,27.9,25.0,0.0,0.0,0.0,0,0,100,0.00,0.00,24,13,35,0.00
2013-3-14,35.0,28.2,21.7,0.0,0.0,0.0,0,0,100,0.00,0.00,18,10,27,0.00
2013-3-15,41.0,33.6,28.0,0.0,0.0,0.0,0,0,100,0.00,0.00,20,7,24,0.00
2013-3-16,34.0,30.4,27.0,0.0,0.0,0.0,0,0,100,0.00,0.00,0,0,0,0.26
2013-3-17,31.2,27.9,24.3,0.0,0.0,0.0,0,0,100,0.00,0.00,14,3,20,0.02
2013-3-18,44.0,32.6,24.0,0.0,0.0,0.0,0,0,100,0.00,0.00,23,10,32,0.33
2013-3-19,38.4,28.9,24.0,0.0,0.0,0.0,0,0,100,0.00,0.00,28,17,43,0.00
2013-3-20,29.0,25.1,19.0,0.0,0.0,0.0,0,0,100,0.00,0.00,20,10,26,0.00
2013-3-21,27.0,20.8,14.7,0.0,0.0,0.0,0,0,100,0.00,0.00,17,10,21,0.02
2013-3-22,33.0,25.9,22.0,0.0,0.0,0.0,0,0,100,0.00,0.00,15,8,20,0.02
2013-3-23,37.0,28.7,19.0,0.0,0.0,0.0,0,0,100,0.00,0.00,9,2,14,0.00
2013-3-24,34.0,28.8,24.0,0.0,0.0,0.0,0,0,100,0.00,0.00,18,9,35,0.00
2013-3-25,35.0,31.5,29.0,0.0,0.0,0.0,0,0,100,0.00,0.00,17,6,27,0.00
2013-3-26,38.0,32.6,29.0,0.0,0.0,0.0,0,0,100,0.00,0.00,15,8,22,0.29
2013-3-27,40.0,34.4,29.3,0.0,0.0,0.0,0,0,100,0.00,0.00,18,10,25,0.02
2013-3-28,41.0,36.1,32.0,0.0,0.0,0.0,0,0,100,0.00,0.00,20,7,24,0.00
2013-3-29,46.0,38.9,32.0,0.0,0.0,0.0,0,0,100,0.00,0.00,14,6,22,0.00
2013-3-30,54.6,42.5,30.1,0.0,0.0,0.0,0,0,100,0.00,0.00,15,5,21,0.00
2013-3-31,51.5,45.9,41.7,0.0,0.0,0.0,0,0,100,0.00,0.00,17,9,24,0.00
2013-4-1,45.0,34.6,29.0,0.0,0.0,0.0,0,0,100,0.00,0.00,21,13,33,0.00
2013-4-2,37.2,29.8,23.0,0.0,0.0,0.0,0,0,100,0.00,0.00,17,8,28,0.00
2013-4-3,34.0,28.9,23.0,0.0,0.0,0.0,0,0,100,0.00,0.00,20,6,31,0.00
2013-4-4,54.0,36.4,23.0,0.0,0.0,0.0,0,0,100,0.00,0.00,10,5,17,0.00
2013-4-5,42.0,37.4,28.0,0.0,0.0,0.0,0,0,100,0.00,0.00,14,6,23,0.00
2013-4-6,54.0,40.2,25.0,0.0,0.0,0.0,0,0,100,0.00,0.00,20,9,25,0.00
2013-4-7,70.0,54.9,43.0,0.0,0.0,0.0,0,0,100,0.00,0.00,26,13,47,0.00
2013-4-8,70.0,54.6,37.6,0.0,0.0,0.0,0,0,100,0.00,0.00,24,13,41,0.00
2013-4-9,77.2,61.9,44.0,0.0,0.0,0.0,0,0,100,0.00,0.00,21,8,29,0.00
2013-4-10,73.0,54.8,42.0,0.0,0.0,0.0,0,0,100,0.00,0.00,17,5,43,1.36
2013-4-11,51.0,45.4,40.0,0.0,0.0,0.0,0,0,100,0.00,0.00,21,6,27,0.18
2013-4-12,55.0,43.0,37.0,0.0,0.0,0.0,0,0,100,0.00,0.00,21,11,33,0.24
2013-4-13,41.3,37.8,34.0,0.0,0.0,0.0,0,0,100,0.00,0.00,24,12,35,0.00
2013-4-14,55.0,43.1,31.0,0.0,0.0,0.0,0,0,100,0.00,0.00,16,6,24,0.00
2013-4-15,68.5,58.8,50.0,0.0,0.0,0.0,0,0,100,0.00,0.00,21,12,31,0.00
2013-4-16,65.0,55.2,48.0,0.0,0.0,0.0,0,0,100,0.00,0.00,18,8,28,0.18
2013-4-17,62.3,53.7,45.0,0.0,0.0,0.0,0,0,100,0.00,0.00,16,5,21,0.02
2013-4-18,82.0,68.5,58.8,0.0,0.0,0.0,0,0,100,0.00,0.00,26,14,50,0.00
2013-4-19,68.5,50.8,37.0,0.0,0.0,0.0,0,0,100,0.00,0.00,26,17,45,0.11
2013-4-20,41.0,35.5,31.0,0.0,0.0,0.0,0,0,100,0.00,0.00,22,12,31,0.00
2013-4-21,47.6,36.9,28.0,0.0,0.0,0.0,0,0,100,0.00,0.00,14,5,21,0.00
2013-4-22,63.0,49.2,33.0,0.0,0.0,0.0,0,0,100,0.00,0.00,13,8,22,0.00
2013-4-23,69.0,56.9,42.0,0.0,0.0,0.0,0,0,100,0.00,0.00,20,11,26,0.00
2013-4-24,59.0,44.8,34.0,0.0,0.0,0.0,0,0,100,0.00,0.00,18,10,27,0.59
2013-4-25,50.0,39.7,30.0,0.0,0.0,0.0,0,0,100,0.00,0.00,23,8,38,0.09
2013-4-26,57.0,45.2,32.0,0.0,0.0,0.0,0,0,100,0.00,0.00,10,2,12,0.00
2013-4-27,69.0,55.5,42.0,0.0,0.0,0.0,0,0,100,0.00,0.00,13,5,20,0.00
2013-4-28,55.0,53.5,51.0,0.0,0.0,0.0,0,0,100,0.00,0.00,15,9,29,0.24
2013-4-29,65.9,57.5,53.7,0.0,0.0,0.0,0,0,100,0.00,0.00,13,5,22,0.22
2013-4-30,74.0,62.5,51.0,0.0,0.0,0.0,0,0,100,0.00,0.00,16,8,25,0.02
2013-5-1,77.7,66.0,53.0,0.0,0.0,0.0,0,0,100,0.00,0.00,16,9,22,0.00
2013-5-2,76.0,66.2,55.0,0.0,0.0,0.0,0,0,100,0.00,0.00,15,10,23,0.00
2013-5-3,75.0,65.0,54.8,0.0,0.0,0.0,0,0,100,0.00,0.00,20,12,29,0.00
2013-5-4,70.0,61.4,51.7,0.0,0.0,0.0,0,0,100,0.00,0.00,21,12,29,0.00
2013-5-5,73.0,61.8,52.0,0.0,0.0,0.0,0,0,100,0.00,0.00,18,11,30,0.00
2013-5-6,73.0,61.8,49.0,0.0,0.0,0.0,0,0,100,0.00,0.00,17,10,26,0.00
2013-5-7,73.2,63.3,55.0,0.0,0.0,0.0,0,0,100,0.00,0.00,14,7,21,0.00
2013-5-8,70.0,62.5,56.0,0.0,0.0,0.0,0,0,100,0.00,0.00,12,4,21,0.00
2013-5-9,75.0,64.1,54.0,0.0,0.0,0.0,0,0,100,0.00,0.00,10,4,16,0.00
2013-5-10,72.6,62.7,50.0,0.0,0.0,0.0,0,0,100,0.00,0.00,21,8,30,0.31
2013-5-11,55.0,46.5,42.0,0.0,0.0,0.0,0,0,100,0.00,0.00,18,6,35,0.09
2013-5-12,48.2,41.2,35.0,0.0,0.0,0.0,0,0,100,0.00,0.00,23,12,33,0.00
2013-5-13,49.0,40.4,33.0,0.0,0.0,0.0,0,0,100,0.00,0.00,15,6,24,0.00
2013-5-14,66.0,51.0,36.0,0.0,0.0,0.0,0,0,100,0.00,0.00,23,10,32,0.00
2013-5-15,82.0,67.9,55.0,0.0,0.0,0.0,0,0,100,0.00,0.00,31,11,39,0.00
2013-5-16,79.0,67.3,56.0,0.0,0.0,0.0,0,0,100,0.00,0.00,12,4,17,0.00
2013-5-17,76.0,64.5,53.0,0.0,0.0,0.0,0,0,100,0.00,0.00,14,7,20,0.00
2013-5-18,82.8,68.3,56.0,0.0,0.0,0.0,0,0,100,0.00,0.00,14,7,21,0.00
2013-5-19,82.3,71.0,61.0,0.0,0.0,0.0,0,0,100,0.00,0.00,13,8,20,0.00
2013-5-20,82.0,73.3,63.0,0.0,0.0,0.0,0,0,100,0.00,0.00,18,8,26,0.00
2013-5-21,85.0,75.1,68.0,0.0,0.0,0.0,0,0,100,0.00,0.00,18,9,26,0.00
2013-5-22,83.0,73.2,63.0,0.0,0.0,0.0,0,0,100,0.00,0.00,22,9,31,0.40
2013-5-23,72.0,57.8,40.0,0.0,0.0,0.0,0,0,100,0.00,0.00,18,8,30,0.04
2013-5-24,45.0,40.2,36.0,0.0,0.0,0.0,0,0,100,0.00,0.00,17,9,31,0.04
2013-5-25,58.0,45.9,33.0,0.0,0.0,0.0,0,0,100,0.00,0.00,15,6,23,0.00
2013-5-26,62.0,50.5,37.0,0.0,0.0,0.0,0,0,100,0.00,0.00,13,4,18,0.00
2013-5-27,58.0,51.3,43.0,0.0,0.0,0.0,0,0,100,0.00,0.00,16,7,22,0.04
2013-5-28,81.1,66.3,51.0,0.0,0.0,0.0,0,0,100,0.00,0.00,20,9,29,0.26
2013-5-29,85.0,74.9,69.0,0.0,0.0,0.0,0,0,100,0.00,0.00,18,10,28,0.00
2013-5-30,88.0,76.2,65.0,0.0,0.0,0.0,0,0,100,0.00,0.00,14,7,25,0.00
2013-5-31,84.1,72.8,64.0,0.0,0.0,0.0,0,0,100,0.00,0.00,23,9,35,0.73
2013-6-1,81.0,72.0,64.0,0.0,0.0,0.0,0,0,100,0.00,0.00,28,10,37,0.13
2013-6-2,75.0,66.9,59.0,0.0,0.0,0.0,0,0,100,0.00,0.00,20,10,30,0.35
2013-6-3,60.5,54.5,47.0,0.0,0.0,0.0,0,0,100,0.00,0.00,13,5,18,0.00
2013-6-4,65.0,55.8,45.0,0.0,0.0,0.0,0,0,100,0.00,0.00,10,3,17,0.00
2013-6-5,74.0,61.5,49.0,0.0,0.0,0.0,0,0,100,0.00,0.00,10,6,20,0.00
2013-6-6,60.0,56.8,53.0,0.0,0.0,0.0,0,0,100,0.00,0.00,10,3,20,0.31
2013-6-7,58.0,54.3,53.0,0.0,0.0,0.0,0,0,100,0.00,0.00,9,2,13,0.02
2013-6-8,70.0,59.2,54.0,0.0,0.0,0.0,0,0,100,0.00,0.00,8,2,12,0.00
2013-6-9,78.0,66.8,55.0,0.0,0.0,0.0,0,0,100,0.00,0.00,14,8,22,0.00
2013-6-10,72.0,66.2,62.0,0.0,0.0,0.0,0,0,100,0.00,0.00,13,6,20,0.77
2013-6-11,77.0,67.2,62.0,0.0,0.0,0.0,0,0,100,0.00,0.00,15,7,21,0.02
2013-6-12,77.0,71.0,64.0,0.0,0.0,0.0,0,0,100,0.00,0.00,14,5,21,0.02
2013-6-13,70.0,63.6,59.0,0.0,0.0,0.0,0,0,100,0.00,0.00,22,10,43,0.48
2013-6-14,69.0,60.0,53.0,0.0,0.0,0.0,0,0,100,0.00,0.00,13,5,17,0.00
2013-6-15,78.0,64.1,50.0,0.0,0.0,0.0,0,0,100,0.00,0.00,13,2,24,0.00
2013-6-16,81.0,68.9,63.0,0.0,0.0,0.0,0,0,100,0.00,0.00,17,8,24,0.22
2013-6-17,80.0,69.6,62.0,0.0,0.0,0.0,0,0,100,0.00,0.00,12,5,20,0.00
2013-6-18,73.0,65.3,58.0,0.0,0.0,0.0,0,0,100,0.00,0.00,15,6,23,0.00
2013-6-19,70.6,62.1,52.0,0.0,0.0,0.0,0,0,100,0.00,0.00,10,3,20,0.00
2013-6-20,79.0,66.0,53.7,0.0,0.0,0.0,0,0,100,0.00,0.00,10,4,17,0.02
2013-6-21,84.1,71.9,59.0,0.0,0.0,0.0,0,0,100,0.00,0.00,10,5,13,0.00
2013-6-22,87.0,77.1,67.0,0.0,0.0,0.0,0,0,100,0.00,0.00,13,8,20,0.00
2013-6-23,88.0,78.4,69.0,0.0,0.0,0.0,0,0,100,0.00,0.00,13,7,18,0.00
2013-6-24,86.0,76.5,66.0,0.0,0.0,0.0,0,0,100,0.00,0.00,13,7,21,0.00
2013-6-25,88.0,73.4,63.0,0.0,0.0,0.0,0,0,100,0.00,0.00,23,9,40,1.17
2013-6-26,84.0,71.9,64.0,0.0,0.0,0.0,0,0,100,0.00,0.00,13,4,20,0.11
2013-6-27,81.0,69.8,65.0,0.0,0.0,0.0,0,0,100,0.00,0.00,8,2,12,0.31
2013-6-28,77.0,67.1,60.3,0.0,0.0,0.0,0,0,100,0.00,0.00,14,5,25,0.07
2013-6-29,74.0,65.8,60.0,0.0,0.0,0.0,0,0,100,0.00,0.00,9,4,13,0.04
2013-6-30,73.0,66.4,62.0,0.0,0.0,0.0,0,0,100,0.00,0.00,12,4,16,0.02
2013-7-1,70.0,65.2,57.3,0.0,0.0,0.0,0,0,100,0.00,0.00,9,3,17,1.58
2013-7-2,80.3,68.1,60.0,0.0,0.0,0.0,0,0,100,0.00,0.00,12,3,17,0.00
2013-7-3,83.0,73.7,64.0,0.0,0.0,0.0,0,0,100,0.00,0.00,12,6,16,0.00
2013-7-4,80.0,71.8,67.0,0.0,0.0,0.0,0,0,100,0.00,0.00,13,6,22,0.13
2013-7-5,80.0,71.0,67.0,0.0,0.0,0.0,0,0,100,0.00,0.00,10,4,17,0.31
2013-7-6,84.7,72.4,67.0,0.0,0.0,0.0,0,0,100,0.00,0.00,10,5,23,0.15
2013-7-7,79.0,71.1,66.0,0.0,0.0,0.0,0,0,100,0.00,0.00,13,7,18,0.00
2013-7-8,83.0,70.9,63.0,0.0,0.0,0.0,0,0,100,0.00,0.00,14,6,21,0.62
2013-7-9,85.4,73.3,67.0,0.0,0.0,0.0,0,0,100,0.00,0.00,22,6,31,0.31
2013-7-10,86.0,71.4,66.0,0.0,0.0,0.0,0,0,100,0.00,0.00,32,6,56,0.79
2013-7-11,69.2,67.6,62.1,0.0,0.0,0.0,0,0,100,0.00,0.00,8,6,14,0.00
2013-7-12,69.0,69.0,69.0,0.0,0.0,0.0,0,0,100,0.00,0.00,8,8,10,0.00
2013-7-13,69.0,69.0,69.0,0.0,0.0,0.0,0,0,100,0.00,0.00,8,8,10,0.00
2013-7-14,87.9,73.4,69.0,0.0,0.0,0.0,0,0,100,0.00,0.00,8,7,10,0.00
2013-7-15,90.0,79.6,73.0,0.0,0.0,0.0,0,0,100,0.00,0.00,8,3,12,0.00
2013-7-16,86.0,78.8,73.0,0.0,0.0,0.0,0,0,100,0.00,0.00,9,3,13,0.77
2013-7-17,90.0,80.9,74.0,0.0,0.0,0.0,0,0,100,0.00,0.00,10,5,15,0.00
2013-7-18,90.0,81.5,74.0,0.0,0.0,0.0,0,0,100,0.00,0.00,12,4,14,0.00
2013-7-19,89.0,80.5,74.0,0.0,0.0,0.0,0,0,100,0.00,0.00,17,8,25,0.00
2013-7-20,78.0,70.9,65.0,0.0,0.0,0.0,0,0,100,0.00,0.00,15,5,24,0.77
2013-7-21,80.0,71.8,65.0,0.0,0.0,0.0,0,0,100,0.00,0.00,9,2,14,0.04
2013-7-22,74.5,68.2,64.0,0.0,0.0,0.0,0,0,100,0.00,0.00,8,4,12,0.04
2013-7-23,83.0,70.6,61.0,0.0,0.0,0.0,0,0,100,0.00,0.00,18,5,33,0.11
2013-7-24,67.0,61.9,54.0,0.0,0.0,0.0,0,0,100,0.00,0.00,15,6,23,0.00
2013-7-25,73.8,62.8,53.0,0.0,0.0,0.0,0,0,100,0.00,0.00,12,5,18,0.00
2013-7-26,80.0,67.6,56.0,0.0,0.0,0.0,0,0,100,0.00,0.00,9,5,15,0.00
2013-7-27,69.0,64.7,62.0,0.0,0.0,0.0,0,0,100,0.00,0.00,14,6,22,0.20
2013-7-28,68.5,60.6,53.0,0.0,0.0,0.0,0,0,100,0.00,0.00,16,6,25,0.15
2013-7-29,67.0,60.1,52.0,0.0,0.0,0.0,0,0,100,0.00,0.00,16,5,21,0.00
2013-7-30,75.3,64.8,55.0,0.0,0.0,0.0,0,0,100,0.00,0.00,8,2,12,0.00
2013-7-31,77.0,68.4,61.0,0.0,0.0,0.0,0,0,100,0.00,0.00,13,6,17,0.00
2013-8-1,76.0,67.5,62.0,0.0,0.0,0.0,0,0,100,0.00,0.00,14,7,21,0.04
2013-8-2,71.0,64.6,58.0,0.0,0.0,0.0,0,0,100,0.00,0.00,14,7,21,0.07
2013-8-3,75.0,67.8,60.0,0.0,0.0,0.0,0,0,100,0.00,0.00,14,5,17,0.00
2013-8-4,68.0,61.5,56.0,0.0,0.0,0.0,0,0,100,0.00,0.00,20,5,35,0.75
2013-8-7,76.7,71.1,65.1,0.0,0.0,0.0,0,0,100,0.00,0.00,14,6,17,0.33
2013-8-8,81.0,72.3,68.0,0.0,0.0,0.0,0,0,100,0.00,0.00,10,2,17,0.09
2013-8-9,74.0,67.5,61.0,0.0,0.0,0.0,0,0,100,0.00,0.00,12,3,15,0.00
2013-8-10,76.0,67.7,61.0,0.0,0.0,0.0,0,0,100,0.00,0.00,9,4,15,0.00
2013-8-11,79.0,68.4,60.3,0.0,0.0,0.0,0,0,100,0.00,0.00,13,5,17,0.00
2013-8-12,79.0,70.1,62.0,0.0,0.0,0.0,0,0,100,0.00,0.00,9,3,15,0.00
2013-8-13,70.2,63.6,55.0,0.0,0.0,0.0,0,0,100,0.00,0.00,15,7,26,0.00
2013-8-14,65.9,58.1,53.0,0.0,0.0,0.0,0,0,100,0.00,0.00,12,5,21,0.00
2013-8-15,70.0,59.7,50.0,0.0,0.0,0.0,0,0,100,0.00,0.00,7,1,12,0.00
2013-8-16,73.0,62.9,54.0,0.0,0.0,0.0,0,0,100,0.00,0.00,8,3,13,0.00
2013-8-17,77.7,65.8,56.0,0.0,0.0,0.0,0,0,100,0.00,0.00,9,5,15,0.00
2013-8-18,76.0,66.0,57.0,0.0,0.0,0.0,0,0,100,0.00,0.00,8,4,12,0.00
2013-8-19,77.0,67.4,61.0,0.0,0.0,0.0,0,0,100,0.00,0.00,9,2,12,0.00
2013-8-20,83.0,71.0,62.0,0.0,0.0,0.0,0,0,100,0.00,0.00,8,4,12,0.00
2013-8-21,83.0,72.9,63.0,0.0,0.0,0.0,0,0,100,0.00,0.00,8,5,15,0.00
2013-8-22,81.0,72.2,65.0,0.0,0.0,0.0,0,0,100,0.00,0.00,12,6,20,0.20
2013-8-23,78.0,70.5,59.1,0.0,0.0,0.0,0,0,100,0.00,0.00,13,3,20,0.00
2013-8-24,77.5,67.0,57.0,0.0,0.0,0.0,0,0,100,0.00,0.00,12,5,17,0.00
2013-8-25,82.0,69.9,58.7,0.0,0.0,0.0,0,0,100,0.00,0.00,12,6,17,0.00
2013-8-26,82.3,74.0,65.0,0.0,0.0,0.0,0,0,100,0.00,0.00,16,9,21,0.00
2013-8-27,78.0,73.3,67.0,0.0,0.0,0.0,0,0,100,0.00,0.00,15,6,22,1.14
2013-8-28,76.0,71.9,68.0,0.0,0.0,0.0,0,0,100,0.00,0.00,18,5,28,0.29
2013-8-29,83.6,73.1,68.0,0.0,0.0,0.0,0,0,100,0.00,0.00,9,3,13,0.00
2013-8-30,84.0,74.6,65.0,0.0,0.0,0.0,0,0,100,0.00,0.00,12,6,21,0.00
2013-8-31,81.1,73.1,67.0,0.0,0.0,0.0,0,0,100,0.00,0.00,13,4,24,0.00
2013-9-1,81.0,72.4,67.0,0.0,0.0,0.0,0,0,100,0.00,0.00,8,3,15,0.00
2013-9-2,76.0,69.4,64.0,0.0,0.0,0.0,0,0,100,0.00,0.00,13,4,20,0.00
2013-9-3,65.0,60.3,54.0,0.0,0.0,0.0,0,0,100,0.00,0.00,12,6,20,0.00
2013-9-4,75.0,64.1,54.0,0.0,0.0,0.0,0,0,100,0.00,0.00,13,7,17,0.00
2013-9-5,66.0,62.4,53.0,0.0,0.0,0.0,0,0,100,0.00,0.00,13,5,20,0.00
2013-9-6,71.2,59.4,48.0,0.0,0.0,0.0,0,0,100,0.00,0.00,7,2,10,0.00
2013-9-7,77.0,66.3,55.0,0.0,0.0,0.0,0,0,100,0.00,0.00,9,4,13,0.00
2013-9-8,71.0,66.4,56.0,0.0,0.0,0.0,0,0,100,0.00,0.00,10,5,20,0.00
2013-9-9,78.0,66.4,53.0,0.0,0.0,0.0,0,0,100,0.00,0.00,10,6,17,0.00
2013-9-10,91.0,80.5,72.0,0.0,0.0,0.0,0,0,100,0.00,0.00,15,9,22,0.00
2013-9-11,89.0,79.1,73.0,0.0,0.0,0.0,0,0,100,0.00,0.00,13,7,17,0.00
2013-9-12,74.0,67.2,58.0,0.0,0.0,0.0,0,0,100,0.00,0.00,15,4,23,0.40
2013-9-13,59.0,54.8,51.0,0.0,0.0,0.0,0,0,100,0.00,0.00,15,6,24,0.18
2013-9-14,61.9,53.3,45.0,0.0,0.0,0.0,0,0,100,0.00,0.00,12,3,20,0.00
2013-9-15,65.0,56.5,48.0,0.0,0.0,0.0,0,0,100,0.00,0.00,8,4,27,0.02
2013-9-16,63.0,56.9,48.0,0.0,0.0,0.0,0,0,100,0.00,0.00,13,4,22,0.00
2013-9-17,66.0,53.8,42.3,0.0,0.0,0.0,0,0,100,0.00,0.00,10,6,15,0.00
2013-9-18,72.0,60.0,49.7,0.0,0.0,0.0,0,0,100,0.00,0.00,10,6,14,0.00
2013-9-19,75.0,65.6,58.0,0.0,0.0,0.0,0,0,100,0.00,0.00,12,7,21,0.00
2013-9-20,81.0,70.7,64.0,0.0,0.0,0.0,0,0,100,0.00,0.00,20,9,35,0.00
2013-9-21,68.0,68.0,68.0,0.0,0.0,0.0,0,0,100,0.00,0.00,14,14,16,0.00
2013-9-22,68.0,68.0,68.0,0.0,0.0,0.0,0,0,100,0.00,0.00,14,14,16,0.00
2013-9-23,68.0,68.0,68.0,0.0,0.0,0.0,0,0,100,0.00,0.00,14,14,16,0.00
2013-9-24,68.0,60.8,48.0,0.0,0.0,0.0,0,0,100,0.00,0.00,14,8,17,0.00
2013-9-25,69.0,56.4,46.2,0.0,0.0,0.0,0,0,100,0.00,0.00,12,5,16,0.00
2013-9-26,69.2,58.5,48.0,0.0,0.0,0.0,0,0,100,0.00,0.00,12,4,15,0.00
2013-9-27,69.0,59.0,50.0,0.0,0.0,0.0,0,0,100,0.00,0.00,12,6,16,0.00
2013-9-28,73.0,61.2,51.0,0.0,0.0,0.0,0,0,100,0.00,0.00,12,7,17,0.02
2013-9-29,71.0,61.6,54.0,0.0,0.0,0.0,0,0,100,0.00,0.00,13,6,21,0.00
2013-9-30,65.0,60.6,58.0,0.0,0.0,0.0,0,0,100,0.00,0.00,9,4,13,0.04
2013-10-1,74.9,64.5,57.0,0.0,0.0,0.0,0,0,100,0.00,0.00,14,7,20,0.02
2013-10-2,76.0,66.2,61.0,0.0,0.0,0.0,0,0,100,0.00,0.00,12,6,17,0.00
2013-10-3,77.0,67.4,61.0,0.0,0.0,0.0,0,0,100,0.00,0.00,12,7,18,0.02
2013-10-4,76.0,68.9,64.0,0.0,0.0,0.0,0,0,100,0.00,0.00,12,5,20,0.00
2013-10-5,74.9,67.7,64.0,0.0,0.0,0.0,0,0,100,0.00,0.00,12,4,20,0.20
2013-10-6,77.0,68.3,54.0,0.0,0.0,0.0,0,0,100,0.00,0.00,23,10,35,0.62
2013-10-7,57.0,51.2,44.0,0.0,0.0,0.0,0,0,100,0.00,0.00,17,8,27,0.68
2013-10-8,63.0,53.2,44.0,0.0,0.0,0.0,0,0,100,0.00,0.00,9,3,13,0.00
2013-10-9,65.0,53.5,44.0,0.0,0.0,0.0,0,0,100,0.00,0.00,12,5,17,0.02
2013-10-10,63.3,53.4,43.0,0.0,0.0,0.0,0,0,100,0.00,0.00,13,4,18,0.00
2013-10-11,70.0,57.0,48.0,0.0,0.0,0.0,0,0,100,0.00,0.00,9,2,13,0.00
2013-10-12,72.0,61.4,52.0,0.0,0.0,0.0,0,0,100,0.00,0.00,10,4,18,0.00
2013-10-13,65.2,60.6,55.0,0.0,0.0,0.0,0,0,100,0.00,0.00,14,4,18,0.00
2013-10-14,61.0,54.2,47.0,0.0,0.0,0.0,0,0,100,0.00,0.00,10,5,22,0.00
2013-10-15,61.0,54.6,45.0,0.0,0.0,0.0,0,0,100,0.00,0.00,13,6,18,0.00
2013-10-16,66.1,58.7,47.0,0.0,0.0,0.0,0,0,100,0.00,0.00,15,7,22,0.00
2013-10-17,56.0,47.2,41.0,0.0,0.0,0.0,0,0,100,0.00,0.00,15,5,22,0.00
2013-10-18,59.9,50.0,41.0,0.0,0.0,0.0,0,0,100,0.00,0.00,17,9,28,0.00
2013-10-19,50.0,43.4,38.0,0.0,0.0,0.0,0,0,100,0.00,0.00,15,6,23,0.00
2013-10-20,57.0,45.9,37.0,0.0,0.0,0.0,0,0,100,0.00,0.00,15,9,24,0.00
2013-10-21,62.0,51.5,45.0,0.0,0.0,0.0,0,0,100,0.00,0.00,17,10,27,0.02
2013-10-22,47.0,40.8,33.0,0.0,0.0,0.0,0,0,100,0.00,0.00,15,7,24,0.00
2013-10-23,43.0,37.2,34.0,0.0,0.0,0.0,0,0,100,0.00,0.00,18,5,30,0.00
2013-10-24,42.0,34.8,30.0,0.0,0.0,0.0,0,0,100,0.00,0.00,18,8,28,0.00
2013-10-25,45.0,36.3,31.0,0.0,0.0,0.0,0,0,100,0.00,0.00,14,7,20,0.00
2013-10-26,44.0,38.3,33.2,0.0,0.0,0.0,0,0,100,0.00,0.00,21,12,33,0.00
2013-10-27,48.0,40.0,32.9,0.0,0.0,0.0,0,0,100,0.00,0.00,10,5,17,0.00
2013-10-28,53.0,43.4,36.8,0.0,0.0,0.0,0,0,100,0.00,0.00,9,4,14,0.00
2013-10-29,54.0,43.3,34.0,0.0,0.0,0.0,0,0,100,0.00,0.00,10,5,15,0.00
2013-10-30,62.0,51.7,41.0,0.0,0.0,0.0,0,0,100,0.00,0.00,13,4,18,0.00
2013-10-31,63.3,58.8,55.0,0.0,0.0,0.0,0,0,100,0.00,0.00,25,14,44,0.02
2013-11-1,58.0,51.0,45.0,0.0,0.0,0.0,0,0,100,0.00,0.00,26,13,44,0.00
2013-11-2,47.0,43.8,40.0,0.0,0.0,0.0,0,0,100,0.00,0.00,16,8,22,0.00
2013-11-3,44.0,38.3,30.0,0.0,0.0,0.0,0,0,100,0.00,0.00,12,4,20,0.00
2013-11-4,45.0,35.9,28.5,0.0,0.0,0.0,0,0,100,0.00,0.00,16,10,25,0.00
2013-11-5,57.8,49.0,41.0,0.0,0.0,0.0,0,0,100,0.00,0.00,10,6,17,0.00
2013-11-6,63.0,53.7,46.0,0.0,0.0,0.0,0,0,100,0.00,0.00,22,13,32,0.00
2013-11-7,46.0,39.8,37.0,0.0,0.0,0.0,0,0,100,0.00,0.00,22,10,33,0.00
2013-11-8,39.0,34.3,30.0,0.0,0.0,0.0,0,0,100,0.00,0.00,16,6,29,0.00
2013-11-9,55.0,44.3,30.5,0.0,0.0,0.0,0,0,100,0.00,0.00,25,13,37,0.00
2013-11-10,48.4,41.6,34.3,0.0,0.0,0.0,0,0,100,0.00,0.00,25,12,37,0.00
2013-11-11,45.0,36.9,28.0,0.0,0.0,0.0,0,0,100,0.00,0.00,18,8,25,0.00
2013-11-12,33.0,28.6,26.0,0.0,0.0,0.0,0,0,100,0.00,0.00,20,8,31,0.00
2013-11-13,34.0,28.7,23.0,0.0,0.0,0.0,0,0,100,0.00,0.00,18,10,28,0.00
2013-11-14,47.0,36.6,27.0,0.0,0.0,0.0,0,0,100,0.00,0.00,20,13,31,0.00
2013-11-15,48.7,43.1,36.0,0.0,0.0,0.0,0,0,100,0.00,0.00,16,10,24,0.00
2013-11-16,57.0,48.4,39.0,0.0,0.0,0.0,0,0,100,0.00,0.00,20,10,28,0.00
2013-11-17,60.0,55.9,49.0,0.0,0.0,0.0,0,0,100,0.00,0.00,37,18,53,0.00
2013-11-18,49.0,40.6,33.0,0.0,0.0,0.0,0,0,100,0.00,0.00,35,18,50,0.00
2013-11-19,36.0,32.3,26.0,0.0,0.0,0.0,0,0,100,0.00,0.00,13,4,23,0.00
2013-11-20,44.0,35.0,26.0,0.0,0.0,0.0,0,0,100,0.00,0.00,20,10,27,0.00
2013-11-21,44.3,39.8,36.0,0.0,0.0,0.0,0,0,100,0.00,0.00,14,8,22,0.00
2013-11-22,47.1,42.0,33.0,0.0,0.0,0.0,0,0,100,0.00,0.00,22,8,32,0.00
2013-11-23,33.0,26.9,17.7,0.0,0.0,0.0,0,0,100,0.00,0.00,28,12,40,0.00
2013-11-24,21.3,18.8,17.0,0.0,0.0,0.0,0,0,100,0.00,0.00,22,12,35,0.00
2013-11-25,32.0,24.1,16.0,0.0,0.0,0.0,0,0,100,0.00,0.00,18,11,35,0.00
2013-11-26,33.0,30.1,28.2,0.0,0.0,0.0,0,0,100,0.00,0.00,14,4,20,0.00
2013-11-27,31.0,25.6,22.0,0.0,0.0,0.0,0,0,100,0.00,0.00,21,11,29,0.00
2013-11-28,26.5,22.1,16.9,0.0,0.0,0.0,0,0,100,0.00,0.00,14,6,22,0.00
2013-11-29,31.0,25.0,19.0,0.0,0.0,0.0,0,0,100,0.00,0.00,12,2,18,0.00
2013-11-30,37.0,29.2,24.0,0.0,0.0,0.0,0,0,100,0.00,0.00,15,10,21,0.00
2013-12-1,39.0,35.5,33.0,0.0,0.0,0.0,0,0,100,0.00,0.00,9,4,13,0.00
2013-12-2,37.0,34.1,30.0,0.0,0.0,0.0,0,0,100,0.00,0.00,8,2,10,0.00
2013-12-3,49.0,39.0,30.0,0.0,0.0,0.0,0,0,100,0.00,0.00,12,7,17,0.00
2013-12-4,56.0,49.8,43.0,0.0,0.0,0.0,0,0,100,0.00,0.00,20,9,29,0.00
2013-12-5,59.6,48.6,30.0,0.0,0.0,0.0,0,0,100,0.00,0.00,20,11,29,0.02
2013-12-6,31.0,28.2,24.0,0.0,0.0,0.0,0,0,100,0.00,0.00,12,4,16,0.04
2013-12-7,24.3,20.9,16.3,0.0,0.0,0.0,0,0,100,0.00,0.00,16,7,20,0.00
2013-12-8,26.3,22.0,16.0,0.0,0.0,0.0,0,0,100,0.00,0.00,18,7,28,0.00
2013-12-9,31.7,28.1,22.0,0.0,0.0,0.0,0,0,100,0.00,0.00,22,11,31,0.00
2013-12-10,24.0,20.1,17.0,0.0,0.0,0.0,0,0,100,0.00,0.00,23,12,35,0.00
2013-12-11,23.6,18.1,14.2,0.0,0.0,0.0,0,0,100,0.00,0.00,17,10,27,0.00
2013-12-12,17.0,12.8,5.0,0.0,0.0,0.0,0,0,100,0.00,0.00,18,11,27,0.00
2013-12-13,28.0,21.7,15.0,0.0,0.0,0.0,0,0,100,0.00,0.00,16,7,24,0.00
2013-12-14,32.0,27.1,22.0,0.0,0.0,0.0,0,0,100,0.00,0.00,16,7,25,0.00
2013-12-15,30.0,19.7,11.0,0.0,0.0,0.0,0,0,100,0.00,0.00,16,3,24,0.00
2013-12-16,21.0,14.9,8.6,0.0,0.0,0.0,0,0,100,0.00,0.00,12,5,16,0.00
2013-12-17,25.3,22.9,18.0,0.0,0.0,0.0,0,0,100,0.00,0.00,15,8,24,0.00
2013-12-18,28.0,23.9,22.0,0.0,0.0,0.0,0,0,100,0.00,0.00,18,11,32,0.00
2013-12-19,43.0,37.1,28.0,0.0,0.0,0.0,0,0,100,0.00,0.00,21,10,30,1.30
2013-12-20,52.4,45.1,40.0,0.0,0.0,0.0,0,0,100,0.00,0.00,17,11,30,0.31
2013-12-21,54.0,45.8,36.0,0.0,0.0,0.0,0,0,100,0.00,0.00,18,7,33,1.43
2013-12-22,59.0,48.5,35.0,0.0,0.0,0.0,0,0,100,0.00,0.00,29,13,45,0.37
2013-12-23,37.0,30.7,25.0,0.0,0.0,0.0,0,0,100,0.00,0.00,17,10,25,0.00
2013-12-24,25.0,16.8,12.6,0.0,0.0,0.0,0,0,100,0.00,0.00,17,10,25,0.00
2013-12-25,25.0,18.7,11.0,0.0,0.0,0.0,0,0,100,0.00,0.00,18,8,25,0.00
2013-12-26,28.0,25.5,20.7,0.0,0.0,0.0,0,0,100,0.00,0.00,21,10,31,0.00
2013-12-27,39.0,33.1,25.0,0.0,0.0,0.0,0,0,100,0.00,0.00,15,9,25,0.02
2013-12-28,50.4,41.1,35.0,0.0,0.0,0.0,0,0,100,0.00,0.00,16,11,24,0.00
2013-12-29,41.4,37.4,24.9,0.0,0.0,0.0,0,0,100,0.00,0.00,17,9,26,0.11
2013-12-30,25.0,19.2,16.0,0.0,0.0,0.0,0,0,100,0.00,0.00,12,1,16,0.02
2013-12-31,20.0,16.8,14.0,0.0,0.0,0.0,0,0,100,0.00,0.00,23,8,30,0.00
2014-1-1,24.0,19.5,16.8,0.0,0.0,0.0,0,0,100,0.00,0.00,12,4,18,0.00
2014-1-2,20.0,16.3,10.0,0.0,0.0,0.0,0,0,100,0.00,0.00,20,9,40,0.00